Time;durP1;ratioP1;P1;durP2;ratioP2;P2;SDS_P1;SDS_P2;PMS_P1;PMS_P2;Temp;Humidity;BMP_temperature;BMP_pressure;BME280_temperature;BME280_humidity;BME280_pressure;Samples;Min_cycle;Max_cycle;Signal;HPM_P1;HPM_P2
2022/05/15 00:01:23;;;;;;;10.37;8.60;;;;;;;;;;748221;186;919493;-65
2022/05/15 00:03:49;;;;;;;11.77;9.30;;;;;;;;;;747376;186;1021272;-64
2022/05/15 00:06:15;;;;;;;12.15;10.82;;;;;;;;;;760853;183;919894;-63
2022/05/15 00:08:41;;;;;;;13.20;10.30;;;;;;;;;;766554;183;918066;-64
2022/05/15 00:11:07;;;;;;;11.20;9.70;;;;;;;;;;757743;183;922185;-64
2022/05/15 00:13:32;;;;;;;13.87;11.17;;;;;;;;;;761358;183;925369;-64
2022/05/15 00:15:58;;;;;;;17.30;11.07;;;;;;;;;;762774;183;919058;-65
2022/05/15 00:18:24;;;;;;;11.07;9.83;;;;;;;;;;758422;183;919442;-66
2022/05/15 00:20:50;;;;;;;14.67;10.40;;;;;;;;;;760686;184;919529;-64
2022/05/15 00:23:16;;;;;;;15.87;10.37;;;;;;;;;;766613;184;919307;-64
2022/05/15 00:25:42;;;;;;;14.83;10.60;;;;;;;;;;758976;183;1020027;-65
2022/05/15 00:28:07;;;;;;;14.37;11.60;;;;;;;;;;761983;184;918923;-64
2022/05/15 00:30:33;;;;;;;14.20;9.77;;;;;;;;;;759613;184;919729;-65
2022/05/15 00:32:59;;;;;;;13.00;10.80;;;;;;;;;;762421;183;919871;-64
2022/05/15 00:35:25;;;;;;;14.60;9.83;;;;;;;;;;754578;184;920911;-64
2022/05/15 00:37:51;;;;;;;14.37;10.43;;;;;;;;;;758405;183;919521;-64
2022/05/15 00:40:17;;;;;;;12.93;10.73;;;;;;;;;;757238;184;620519;-64
2022/05/15 00:42:42;;;;;;;14.63;11.20;;;;;;;;;;757798;184;651536;-64
2022/05/15 00:45:09;;;;;;;12.47;10.07;;;;;;;;;;765405;183;634690;-64
2022/05/15 00:47:35;;;;;;;14.30;9.80;;;;;;;;;;766008;183;625029;-65
2022/05/15 00:50:00;;;;;;;14.27;10.83;;;;;;;;;;761457;183;634709;-64
2022/05/15 00:52:26;;;;;;;13.60;10.70;;;;;;;;;;753527;186;919428;-64
2022/05/15 00:54:52;;;;;;;11.97;10.03;;;;;;;;;;756643;184;918456;-64
2022/05/15 00:57:20;;;;;;;13.00;10.50;;;;;;;;;;758871;184;919781;-63
2022/05/15 00:59:48;;;;;;;12.33;10.50;;;;;;;;;;758581;183;919258;-64
2022/05/15 01:02:14;;;;;;;13.70;10.50;;;;;;;;;;758731;183;1019399;-63
2022/05/15 01:04:40;;;;;;;14.47;11.40;;;;;;;;;;766925;184;921160;-64
2022/05/15 01:07:06;;;;;;;12.53;10.07;;;;;;;;;;763554;183;918771;-64
2022/05/15 01:09:32;;;;;;;19.80;9.90;;;;;;;;;;749117;186;919116;-64
2022/05/15 01:11:58;;;;;;;11.80;9.17;;;;;;;;;;764122;183;919007;-64
2022/05/15 01:14:23;;;;;;;13.60;8.97;;;;;;;;;;763282;183;919282;-64
2022/05/15 01:16:49;;;;;;;12.90;11.40;;;;;;;;;;761550;183;919341;-65
2022/05/15 01:19:16;;;;;;;15.30;10.70;;;;;;;;;;766492;183;816487;-64
2022/05/15 01:21:48;;;;;;;13.37;11.37;;;;;;;;;;757886;183;918402;-65
2022/05/15 01:24:14;;;;;;;14.70;11.30;;;;;;;;;;761756;182;919337;-64
2022/05/15 01:26:39;;;;;;;15.17;11.40;;;;;;;;;;755626;183;918674;-64
2022/05/15 01:29:05;;;;;;;14.63;10.90;;;;;;;;;;762780;183;920515;-65
2022/05/15 01:31:31;;;;;;;14.73;10.93;;;;;;;;;;747823;184;1034505;-63
2022/05/15 01:33:59;;;;;;;16.20;12.53;;;;;;;;;;758546;184;919011;-64
2022/05/15 01:36:24;;;;;;;14.87;10.73;;;;;;;;;;761985;183;919217;-62
2022/05/15 01:38:50;;;;;;;14.67;11.00;;;;;;;;;;750463;187;921470;-63
2022/05/15 01:41:16;;;;;;;16.33;10.90;;;;;;;;;;754849;184;919500;-63
2022/05/15 01:43:43;;;;;;;13.27;10.40;;;;;;;;;;759884;183;920253;-64
2022/05/15 01:46:07;;;;;;;15.30;12.17;;;;;;;;;;760546;184;920506;-64
2022/05/15 01:48:33;;;;;;;14.33;11.73;;;;;;;;;;754487;184;1016425;-63
2022/05/15 01:50:59;;;;;;;13.70;11.00;;;;;;;;;;758185;183;916287;-63
2022/05/15 01:53:25;;;;;;;14.40;11.13;;;;;;;;;;762888;184;916308;-64
2022/05/15 01:55:52;;;;;;;13.47;11.90;;;;;;;;;;758306;183;1022055;-63
2022/05/15 01:58:16;;;;;;;14.63;11.90;;;;;;;;;;762517;183;919441;-63
2022/05/15 02:00:42;;;;;;;14.60;11.40;;;;;;;;;;762574;183;918759;-66
2022/05/15 02:03:10;;;;;;;15.87;12.07;;;;;;;;;;753639;183;916504;-64
2022/05/15 02:05:36;;;;;;;13.63;12.23;;;;;;;;;;752306;183;918714;-63
2022/05/15 02:08:02;;;;;;;15.40;12.10;;;;;;;;;;761166;183;921620;-64
2022/05/15 02:10:28;;;;;;;17.80;12.10;;;;;;;;;;765029;184;919406;-63
2022/05/15 02:12:53;;;;;;;16.47;11.60;;;;;;;;;;753214;184;1021244;-63
2022/05/15 02:15:19;;;;;;;15.00;12.13;;;;;;;;;;753991;184;919120;-63
2022/05/15 02:17:45;;;;;;;14.90;12.05;;;;;;;;;;757059;186;918178;-63
2022/05/15 02:20:11;;;;;;;14.60;11.50;;;;;;;;;;756247;183;1050434;-63
2022/05/15 02:22:37;;;;;;;13.77;11.77;;;;;;;;;;763460;181;622478;-64
2022/05/15 02:25:03;;;;;;;16.50;12.67;;;;;;;;;;769893;183;617144;-63
2022/05/15 02:27:29;;;;;;;15.80;12.17;;;;;;;;;;764692;183;626701;-63
2022/05/15 02:29:55;;;;;;;15.90;11.13;;;;;;;;;;759158;183;629367;-63
2022/05/15 02:32:20;;;;;;;15.00;11.80;;;;;;;;;;756113;183;617961;-63
2022/05/15 02:34:46;;;;;;;13.90;11.53;;;;;;;;;;770180;183;634686;-63
2022/05/15 02:37:12;;;;;;;17.13;12.07;;;;;;;;;;752597;183;919806;-64
2022/05/15 02:39:38;;;;;;;14.80;12.10;;;;;;;;;;748701;183;920497;-63
2022/05/15 02:42:04;;;;;;;12.93;11.40;;;;;;;;;;763193;183;920100;-64
2022/05/15 02:44:30;;;;;;;15.00;13.10;;;;;;;;;;757970;183;919286;-63
2022/05/15 02:46:56;;;;;;;15.37;11.87;;;;;;;;;;754359;184;930984;-63
2022/05/15 02:51:53;;;;;;;15.20;13.17;;;;;;;;;;762576;184;917884;-63
2022/05/15 02:54:19;;;;;;;15.90;12.50;;;;;;;;;;761352;183;919170;-63
2022/05/15 02:56:45;;;;;;;14.43;12.50;;;;;;;;;;754885;183;918993;-63
2022/05/15 02:59:11;;;;;;;16.67;12.52;;;;;;;;;;756915;185;920138;-63
2022/05/15 03:01:37;;;;;;;15.10;11.20;;;;;;;;;;756273;183;919849;-64
2022/05/15 03:04:03;;;;;;;17.53;13.20;;;;;;;;;;749879;183;919325;-64
2022/05/15 03:06:29;;;;;;;18.33;12.93;;;;;;;;;;762430;184;919202;-64
2022/05/15 03:08:54;;;;;;;20.10;15.60;;;;;;;;;;758607;183;919159;-64
2022/05/15 03:11:20;;;;;;;18.10;13.23;;;;;;;;;;753769;183;919570;-64
2022/05/15 03:13:46;;;;;;;17.63;13.47;;;;;;;;;;752853;183;939630;-63
2022/05/15 03:16:12;;;;;;;17.37;14.60;;;;;;;;;;749712;184;1198095;-64
2022/05/15 03:18:39;;;;;;;17.23;13.90;;;;;;;;;;738075;188;918948;-64
2022/05/15 03:21:05;;;;;;;19.57;13.53;;;;;;;;;;758991;183;918314;-63
2022/05/15 03:23:31;;;;;;;16.93;13.40;;;;;;;;;;764531;183;917981;-63
2022/05/15 03:25:57;;;;;;;21.43;14.17;;;;;;;;;;756563;184;919385;-64
2022/05/15 03:28:23;;;;;;;17.52;13.27;;;;;;;;;;756911;183;922149;-64
2022/05/15 03:30:49;;;;;;;18.73;13.40;;;;;;;;;;760529;183;920425;-64
2022/05/15 03:33:15;;;;;;;20.47;14.70;;;;;;;;;;753454;183;918677;-64
2022/05/15 03:35:40;;;;;;;20.10;14.87;;;;;;;;;;758643;183;919725;-64
2022/05/15 03:38:06;;;;;;;21.00;15.13;;;;;;;;;;759402;183;920363;-63
2022/05/15 03:40:32;;;;;;;24.27;15.40;;;;;;;;;;753237;183;919953;-63
2022/05/15 03:42:58;;;;;;;19.50;15.17;;;;;;;;;;733933;188;921578;-63
2022/05/15 03:45:24;;;;;;;18.60;15.13;;;;;;;;;;729990;189;927786;-63
2022/05/15 03:47:50;;;;;;;18.75;15.18;;;;;;;;;;765816;183;918836;-64
2022/05/15 03:50:15;;;;;;;23.57;16.70;;;;;;;;;;754239;183;918952;-65
2022/05/15 03:52:41;;;;;;;25.33;17.33;;;;;;;;;;758948;183;917088;-64
2022/05/15 03:55:08;;;;;;;25.63;17.10;;;;;;;;;;763322;183;919200;-64
2022/05/15 03:57:33;;;;;;;30.23;18.83;;;;;;;;;;750670;184;920276;-63
2022/05/15 03:59:59;;;;;;;23.90;19.30;;;;;;;;;;758684;184;921459;-64
2022/05/15 04:02:25;;;;;;;26.57;19.37;;;;;;;;;;762335;184;921161;-63
2022/05/15 04:04:51;;;;;;;29.17;20.87;;;;;;;;;;750861;184;916744;-64
2022/05/15 04:07:17;;;;;;;29.60;19.93;;;;;;;;;;751946;183;915988;-64
2022/05/15 04:09:43;;;;;;;31.27;20.20;;;;;;;;;;755579;183;921202;-64
2022/05/15 04:12:08;;;;;;;32.43;21.63;;;;;;;;;;754544;185;915687;-64
2022/05/15 04:14:34;;;;;;;31.33;21.30;;;;;;;;;;758595;184;919489;-64
2022/05/15 04:17:00;;;;;;;34.13;23.10;;;;;;;;;;755759;183;928141;-64
2022/05/15 04:19:26;;;;;;;35.40;23.30;;;;;;;;;;759944;183;918765;-63
2022/05/15 04:21:52;;;;;;;40.83;27.30;;;;;;;;;;758000;183;920300;-64
2022/05/15 04:24:18;;;;;;;40.40;27.17;;;;;;;;;;759439;183;921464;-64
2022/05/15 04:26:44;;;;;;;45.40;29.50;;;;;;;;;;758351;183;919161;-63
2022/05/15 04:29:09;;;;;;;46.53;29.20;;;;;;;;;;759142;184;918285;-64
2022/05/15 04:31:35;;;;;;;51.60;30.87;;;;;;;;;;754558;183;919430;-63
2022/05/15 04:34:01;;;;;;;57.30;33.97;;;;;;;;;;756077;183;919959;-66
2022/05/15 04:36:27;;;;;;;62.63;33.70;;;;;;;;;;764205;183;919450;-63
2022/05/15 04:38:53;;;;;;;46.97;32.17;;;;;;;;;;760183;183;918558;-63
2022/05/15 04:41:19;;;;;;;52.93;33.67;;;;;;;;;;758220;183;919091;-64
2022/05/15 04:43:44;;;;;;;58.03;34.80;;;;;;;;;;767273;183;919374;-63
2022/05/15 04:46:10;;;;;;;53.03;33.80;;;;;;;;;;758362;183;919158;-64
2022/05/15 04:48:36;;;;;;;60.20;35.37;;;;;;;;;;763722;183;917495;-64
2022/05/15 04:51:02;;;;;;;62.30;35.30;;;;;;;;;;757645;183;623563;-63
2022/05/15 04:53:28;;;;;;;60.03;36.10;;;;;;;;;;760032;183;919165;-63
2022/05/15 04:55:54;;;;;;;75.23;39.67;;;;;;;;;;757690;183;925073;-63
2022/05/15 04:58:20;;;;;;;60.95;37.58;;;;;;;;;;758665;183;918240;-63
2022/05/15 05:00:46;;;;;;;61.83;38.43;;;;;;;;;;753209;184;920396;-64
2022/05/15 05:03:12;;;;;;;65.77;37.60;;;;;;;;;;756941;183;919440;-63
2022/05/15 05:05:37;;;;;;;54.70;36.67;;;;;;;;;;758257;184;1017909;-64
2022/05/15 05:08:05;;;;;;;55.43;34.70;;;;;;;;;;765675;183;914956;-64
2022/05/15 05:10:29;;;;;;;52.87;32.67;;;;;;;;;;761399;183;916513;-64
2022/05/15 05:12:55;;;;;;;49.33;33.08;;;;;;;;;;756190;183;920178;-64
2022/05/15 05:15:21;;;;;;;40.47;29.37;;;;;;;;;;764201;183;920825;-64
2022/05/15 05:17:47;;;;;;;40.43;27.90;;;;;;;;;;758136;183;919632;-65
2022/05/15 05:20:13;;;;;;;38.57;26.13;;;;;;;;;;759873;184;919895;-65
2022/05/15 05:22:39;;;;;;;36.53;26.40;;;;;;;;;;752710;184;919528;-65
2022/05/15 05:25:05;;;;;;;38.50;25.77;;;;;;;;;;754144;184;918461;-67
2022/05/15 05:27:31;;;;;;;36.27;24.57;;;;;;;;;;757365;183;919539;-65
2022/05/15 05:29:57;;;;;;;35.63;22.97;;;;;;;;;;758145;184;920033;-65
2022/05/15 05:32:22;;;;;;;32.30;22.13;;;;;;;;;;763855;183;918473;-65
2022/05/15 05:34:48;;;;;;;32.00;21.00;;;;;;;;;;757702;183;919009;-65
2022/05/15 05:37:17;;;;;;;28.97;20.03;;;;;;;;;;756511;183;1009721;-65
2022/05/15 05:39:40;;;;;;;24.70;20.07;;;;;;;;;;761760;183;919715;-65
2022/05/15 05:42:07;;;;;;;21.77;16.80;;;;;;;;;;756586;184;919703;-65
2022/05/15 05:44:33;;;;;;;22.67;19.00;;;;;;;;;;755736;184;919462;-67
2022/05/15 05:46:59;;;;;;;19.77;17.07;;;;;;;;;;763402;183;919134;-67
2022/05/15 05:49:24;;;;;;;20.20;17.47;;;;;;;;;;760287;183;918773;-67
2022/05/15 05:51:51;;;;;;;20.70;16.47;;;;;;;;;;750299;184;919432;-66
2022/05/15 05:54:16;;;;;;;21.40;16.47;;;;;;;;;;756549;183;919882;-66
2022/05/15 05:56:42;;;;;;;18.07;14.77;;;;;;;;;;763320;181;918647;-65
2022/05/15 05:59:08;;;;;;;17.33;13.10;;;;;;;;;;760638;183;921161;-66
2022/05/15 06:01:34;;;;;;;16.95;14.00;;;;;;;;;;749668;183;923164;-66
2022/05/15 06:06:31;;;;;;;28.13;20.23;;;;;;;;;;758619;182;918683;-67
2022/05/15 06:08:57;;;;;;;16.60;11.60;;;;;;;;;;757144;183;920423;-66
2022/05/15 06:11:23;;;;;;;18.00;12.47;;;;;;;;;;758423;183;919083;-67
2022/05/15 06:13:49;;;;;;;16.13;12.90;;;;;;;;;;756934;185;919344;-66
2022/05/15 06:16:15;;;;;;;22.07;16.00;;;;;;;;;;761209;183;635495;-67
2022/05/15 06:18:40;;;;;;;13.60;11.13;;;;;;;;;;762888;183;624973;-68
2022/05/15 06:21:06;;;;;;;15.50;12.03;;;;;;;;;;765587;184;627775;-68
2022/05/15 06:23:32;;;;;;;13.53;11.07;;;;;;;;;;762236;183;640562;-68
2022/05/15 06:25:59;;;;;;;15.10;9.87;;;;;;;;;;761379;183;643614;-69
2022/05/15 06:28:25;;;;;;;10.63;9.33;;;;;;;;;;764092;183;673968;-69
2022/05/15 06:30:50;;;;;;;10.63;9.20;;;;;;;;;;760314;182;627799;-69
2022/05/15 06:33:16;;;;;;;11.80;8.20;;;;;;;;;;759335;183;744367;-69
2022/05/15 06:35:42;;;;;;;13.20;8.50;;;;;;;;;;759778;183;624149;-69
2022/05/15 06:38:08;;;;;;;10.20;7.70;;;;;;;;;;764371;183;630528;-69
2022/05/15 06:40:34;;;;;;;13.53;8.60;;;;;;;;;;762502;183;643546;-69
2022/05/15 06:43:00;;;;;;;14.23;7.33;;;;;;;;;;760081;183;631990;-69
2022/05/15 06:45:26;;;;;;;17.50;7.43;;;;;;;;;;761746;184;912505;-69
2022/05/15 06:47:51;;;;;;;11.00;7.07;;;;;;;;;;760945;183;630068;-69
2022/05/15 06:50:17;;;;;;;8.60;5.90;;;;;;;;;;757696;183;930465;-70
2022/05/15 06:52:43;;;;;;;14.90;6.80;;;;;;;;;;764811;184;624611;-70
2022/05/15 06:55:11;;;;;;;16.50;7.00;;;;;;;;;;763254;183;637707;-70
2022/05/15 06:57:38;;;;;;;10.47;6.67;;;;;;;;;;761216;183;622114;-70
2022/05/15 07:00:06;;;;;;;24.70;12.60;;;;;;;;;;762352;183;622456;-70
2022/05/15 07:02:33;;;;;;;28.83;19.40;;;;;;;;;;756596;184;699432;-70
2022/05/15 07:05:00;;;;;;;10.60;7.20;;;;;;;;;;759605;183;627671;-70
2022/05/15 07:07:26;;;;;;;15.50;6.97;;;;;;;;;;759773;183;644324;-70
2022/05/15 07:09:52;;;;;;;7.93;4.87;;;;;;;;;;768717;182;630895;-72
2022/05/15 07:12:18;;;;;;;9.20;5.20;;;;;;;;;;762288;183;646968;-71
2022/05/15 07:14:44;;;;;;;13.87;6.13;;;;;;;;;;764318;183;625882;-72
2022/05/15 07:17:09;;;;;;;11.13;7.13;;;;;;;;;;763095;183;620065;-71
2022/05/15 07:19:35;;;;;;;10.33;6.30;;;;;;;;;;760202;183;620977;-74
2022/05/15 07:22:01;;;;;;;11.73;5.70;;;;;;;;;;763560;183;628738;-72
2022/05/15 07:24:28;;;;;;;19.67;6.17;;;;;;;;;;759135;183;636084;-72
2022/05/15 07:26:53;;;;;;;13.10;6.80;;;;;;;;;;756877;183;687393;-72
2022/05/15 07:29:20;;;;;;;12.10;6.20;;;;;;;;;;762074;183;617793;-72
2022/05/15 07:31:46;;;;;;;15.00;5.83;;;;;;;;;;762251;183;635125;-73
2022/05/15 07:34:10;;;;;;;11.77;6.00;;;;;;;;;;765216;182;625334;-73
2022/05/15 07:36:36;;;;;;;12.10;6.07;;;;;;;;;;762043;183;618236;-74
2022/05/15 07:39:02;;;;;;;10.50;5.73;;;;;;;;;;760966;182;631051;-72
2022/05/15 07:41:28;;;;;;;9.37;5.00;;;;;;;;;;756101;185;918874;-71
2022/05/15 07:43:54;;;;;;;12.13;5.33;;;;;;;;;;761412;183;626449;-73
2022/05/15 07:46:21;;;;;;;11.20;5.33;;;;;;;;;;761933;183;623368;-73
2022/05/15 07:48:46;;;;;;;12.13;5.00;;;;;;;;;;762525;183;636015;-73
2022/05/15 07:51:12;;;;;;;6.60;4.97;;;;;;;;;;764783;183;632720;-74
2022/05/15 07:53:38;;;;;;;17.10;5.40;;;;;;;;;;745392;187;631610;-72
2022/05/15 07:56:09;;;;;;;13.77;6.00;;;;;;;;;;763118;183;624783;-72
2022/05/15 07:58:30;;;;;;;11.20;5.87;;;;;;;;;;763943;184;627435;-73
2022/05/15 08:00:55;;;;;;;8.77;5.20;;;;;;;;;;761064;184;637071;-73
2022/05/15 08:03:21;;;;;;;9.20;6.37;;;;;;;;;;762987;183;623196;-75
2022/05/15 08:08:19;;;;;;;12.10;4.70;;;;;;;;;;764545;183;627861;-75
2022/05/15 08:10:45;;;;;;;7.00;4.47;;;;;;;;;;750214;184;919568;-74
2022/05/15 08:13:12;;;;;;;11.90;5.07;;;;;;;;;;752446;185;625760;-76
2022/05/15 08:15:36;;;;;;;8.80;5.03;;;;;;;;;;763436;183;618905;-75
2022/05/15 08:25:37;;;;;;;9.40;4.73;;;;;;;;;;763818;183;793184;-74
2022/05/15 08:28:03;;;;;;;8.40;4.80;;;;;;;;;;760028;183;638214;-74
2022/05/15 08:30:29;;;;;;;10.37;5.50;;;;;;;;;;761486;183;633483;-78
2022/05/15 08:32:55;;;;;;;12.20;4.80;;;;;;;;;;758925;183;770204;-72
2022/05/15 08:35:21;;;;;;;9.73;4.40;;;;;;;;;;764568;183;623237;-72
2022/05/15 08:37:47;;;;;;;16.67;4.80;;;;;;;;;;754175;184;632822;-75
2022/05/15 08:40:13;;;;;;;8.87;4.47;;;;;;;;;;753711;185;631021;-74
2022/05/15 08:42:39;;;;;;;8.43;4.53;;;;;;;;;;765184;184;647339;-72
2022/05/15 08:45:05;;;;;;;7.33;5.00;;;;;;;;;;760998;184;716655;-71
2022/05/15 08:47:31;;;;;;;11.53;5.77;;;;;;;;;;752290;187;645160;-70
2022/05/15 08:49:59;;;;;;;7.40;5.30;;;;;;;;;;762417;184;626368;-70
2022/05/15 08:52:25;;;;;;;14.33;5.10;;;;;;;;;;764591;183;618514;-71
2022/05/15 08:54:53;;;;;;;16.73;7.17;;;;;;;;;;760984;184;627968;-73
2022/05/15 08:57:19;;;;;;;9.27;4.90;;;;;;;;;;761445;183;623208;-72
2022/05/15 08:59:47;;;;;;;18.43;4.90;;;;;;;;;;763588;183;623072;-70
2022/05/15 09:02:13;;;;;;;9.30;4.90;;;;;;;;;;761542;182;656261;-71
2022/05/15 09:04:38;;;;;;;15.10;4.97;;;;;;;;;;754028;184;920246;-69
2022/05/15 09:07:06;;;;;;;8.70;5.50;;;;;;;;;;761267;183;918910;-73
2022/05/15 09:09:36;;;;;;;10.70;4.77;;;;;;;;;;764417;183;623787;-75
2022/05/15 09:12:01;;;;;;;7.40;4.73;;;;;;;;;;761698;183;709430;-73
2022/05/15 09:14:27;;;;;;;12.60;4.83;;;;;;;;;;762355;183;624117;-71
2022/05/15 09:16:53;;;;;;;12.90;4.80;;;;;;;;;;766281;183;614933;-75
2022/05/15 09:19:19;;;;;;;15.23;4.97;;;;;;;;;;760553;183;655762;-74
2022/05/15 09:21:45;;;;;;;7.00;5.10;;;;;;;;;;760176;183;659477;-75
2022/05/15 09:24:11;;;;;;;10.67;4.83;;;;;;;;;;765661;184;633802;-72
2022/05/15 09:26:45;;;;;;;13.13;4.53;;;;;;;;;;764914;183;632827;-74
2022/05/15 09:29:20;;;;;;;7.28;4.40;;;;;;;;;;760292;183;912846;-72
2022/05/15 09:31:45;;;;;;;10.00;6.00;;;;;;;;;;765949;181;625661;-71
2022/05/15 09:34:12;;;;;;;10.77;4.90;;;;;;;;;;754981;185;632002;-74
2022/05/15 09:36:40;;;;;;;10.37;5.40;;;;;;;;;;760460;183;623323;-73
2022/05/15 09:39:11;;;;;;;14.37;5.67;;;;;;;;;;762337;183;634676;-73
2022/05/15 09:44:09;;;;;;;8.77;5.40;;;;;;;;;;764246;183;633226;-74
2022/05/15 09:46:35;;;;;;;10.20;4.97;;;;;;;;;;766678;183;632082;-72
2022/05/15 09:49:03;;;;;;;14.00;6.33;;;;;;;;;;759025;183;666316;-73
2022/05/15 09:51:30;;;;;;;18.30;5.20;;;;;;;;;;763597;183;916750;-70
2022/05/15 09:53:56;;;;;;;16.83;5.87;;;;;;;;;;753515;184;934588;-69
2022/05/15 09:56:22;;;;;;;10.57;6.00;;;;;;;;;;756972;184;918936;-69
2022/05/15 09:58:53;;;;;;;15.90;5.80;;;;;;;;;;761877;183;624787;-72
2022/05/15 10:01:21;;;;;;;12.80;5.43;;;;;;;;;;760592;183;705601;-69
2022/05/15 10:03:48;;;;;;;12.53;6.20;;;;;;;;;;764997;183;618683;-71
2022/05/15 10:06:15;;;;;;;10.83;4.53;;;;;;;;;;761327;183;918836;-73
2022/05/15 10:08:41;;;;;;;12.23;4.90;;;;;;;;;;763526;183;645092;-73
2022/05/15 10:11:07;;;;;;;13.83;5.80;;;;;;;;;;762159;183;626221;-76
2022/05/15 10:13:34;;;;;;;9.27;4.83;;;;;;;;;;760411;184;626817;-72
2022/05/15 10:16:02;;;;;;;15.57;5.50;;;;;;;;;;761797;183;614511;-71
2022/05/15 10:18:26;;;;;;;13.13;5.30;;;;;;;;;;760668;183;628333;-73
2022/05/15 10:20:52;;;;;;;9.43;5.17;;;;;;;;;;764768;184;712978;-74
2022/05/15 10:23:18;;;;;;;13.00;5.30;;;;;;;;;;759781;183;894281;-73
2022/05/15 10:25:59;;;;;;;14.73;6.07;;;;;;;;;;759133;184;814045;-73
2022/05/15 10:28:44;;;;;;;10.43;4.78;;;;;;;;;;756335;183;919459;-76
2022/05/15 10:31:09;;;;;;;11.73;5.33;;;;;;;;;;757861;183;796846;-74
2022/05/15 10:33:36;;;;;;;15.00;4.97;;;;;;;;;;763866;184;810294;-74
2022/05/15 10:36:01;;;;;;;15.63;6.33;;;;;;;;;;760711;183;919831;-77
2022/05/15 10:38:31;;;;;;;12.20;5.50;;;;;;;;;;760977;183;919344;-79
2022/05/15 10:41:02;;;;;;;16.13;6.00;;;;;;;;;;760840;183;713002;-78
2022/05/15 10:43:34;;;;;;;9.80;4.67;;;;;;;;;;765506;183;630617;-76
2022/05/15 10:46:01;;;;;;;11.70;4.43;;;;;;;;;;763649;183;616236;-77
2022/05/15 10:48:28;;;;;;;14.70;5.37;;;;;;;;;;763119;183;639683;-77
2022/05/15 10:50:56;;;;;;;15.00;5.00;;;;;;;;;;761526;183;815836;-77
2022/05/15 10:58:55;;;;;;;13.88;5.95;;;;;;;;;;761650;182;917229;-75
2022/05/15 11:01:35;;;;;;;13.03;7.10;;;;;;;;;;763125;183;652129;-77
2022/05/15 11:04:02;;;;;;;10.10;7.30;;;;;;;;;;768296;183;614012;-76
2022/05/15 11:06:32;;;;;;;14.90;5.37;;;;;;;;;;759192;184;621527;-79
2022/05/15 11:08:58;;;;;;;9.33;5.33;;;;;;;;;;757368;183;917910;-74
2022/05/15 11:11:26;;;;;;;10.87;5.23;;;;;;;;;;767269;183;627129;-79
2022/05/15 11:13:55;;;;;;;18.27;5.00;;;;;;;;;;763753;183;638193;-77
2022/05/15 11:16:21;;;;;;;10.77;4.83;;;;;;;;;;761468;183;635084;-77
2022/05/15 11:18:48;;;;;;;13.57;5.60;;;;;;;;;;761180;183;620598;-77
2022/05/15 11:21:17;;;;;;;14.30;5.43;;;;;;;;;;763648;183;621666;-77
2022/05/15 11:23:58;;;;;;;10.43;5.00;;;;;;;;;;760038;183;731328;-78
2022/05/15 11:26:26;;;;;;;12.40;4.50;;;;;;;;;;760134;183;710451;-79
2022/05/15 11:28:52;;;;;;;13.23;5.60;;;;;;;;;;761241;184;628536;-77
2022/05/15 11:31:17;;;;;;;9.73;4.80;;;;;;;;;;761192;183;1224237;-75
2022/05/15 11:33:52;;;;;;;14.00;5.83;;;;;;;;;;759382;184;816667;-78
2022/05/15 11:36:30;;;;;;;14.85;4.90;;;;;;;;;;758710;184;919533;-78
2022/05/15 11:38:58;;;;;;;15.80;5.23;;;;;;;;;;762841;183;667779;-78
2022/05/15 11:41:29;;;;;;;8.60;5.00;;;;;;;;;;760331;183;721057;-79
2022/05/15 11:43:56;;;;;;;14.63;6.07;;;;;;;;;;765500;183;637221;-76
2022/05/15 11:46:21;;;;;;;13.77;5.40;;;;;;;;;;757942;184;635059;-80
2022/05/15 11:49:04;;;;;;;13.17;4.90;;;;;;;;;;757691;183;836298;-75
2022/05/15 11:51:44;;;;;;;10.00;4.43;;;;;;;;;;761470;183;630836;-76
2022/05/15 11:54:13;;;;;;;14.47;5.00;;;;;;;;;;761411;183;683685;-76
2022/05/15 11:56:39;;;;;;;11.90;5.03;;;;;;;;;;765425;182;629114;-78
2022/05/15 11:59:05;;;;;;;9.40;5.63;;;;;;;;;;755527;184;818621;-78
2022/05/15 12:01:46;;;;;;;21.60;5.77;;;;;;;;;;762557;184;632146;-78
2022/05/15 12:04:15;;;;;;;8.07;4.60;;;;;;;;;;762727;182;627667;-77
2022/05/15 12:06:44;;;;;;;16.60;6.37;;;;;;;;;;762247;182;629981;-77
2022/05/15 12:09:31;;;;;;;16.60;5.73;;;;;;;;;;749699;183;888815;-78
2022/05/15 12:11:58;;;;;;;16.97;5.57;;;;;;;;;;755980;183;712578;-76
2022/05/15 12:14:32;;;;;;;10.23;3.90;;;;;;;;;;760559;184;620078;-76
2022/05/15 12:16:58;;;;;;;11.20;4.73;;;;;;;;;;757309;184;629563;-76
2022/05/15 12:19:24;;;;;;;8.50;4.90;;;;;;;;;;758213;183;815780;-76
2022/05/15 12:21:50;;;;;;;14.03;5.93;;;;;;;;;;761857;183;918966;-75
2022/05/15 12:26:50;;;;;;;9.07;4.63;;;;;;;;;;762988;183;634970;-79
2022/05/15 12:29:26;;;;;;;12.30;4.50;;;;;;;;;;765014;183;672152;-77
2022/05/15 12:31:52;;;;;;;11.10;4.87;;;;;;;;;;751903;186;626547;-77
2022/05/15 12:34:19;;;;;;;13.13;5.10;;;;;;;;;;763384;184;656487;-79
2022/05/15 12:36:45;;;;;;;13.07;6.13;;;;;;;;;;758712;183;907457;-79
2022/05/15 12:39:13;;;;;;;9.30;4.73;;;;;;;;;;759990;183;632888;-73
2022/05/15 12:41:39;;;;;;;11.63;4.63;;;;;;;;;;761323;184;623867;-77
2022/05/15 12:44:06;;;;;;;12.90;5.13;;;;;;;;;;763478;184;816806;-76
2022/05/15 12:46:33;;;;;;;16.00;5.00;;;;;;;;;;759754;183;806246;-75
2022/05/15 12:48:59;;;;;;;10.53;4.93;;;;;;;;;;760769;184;896245;-71
2022/05/15 12:51:26;;;;;;;11.83;4.50;;;;;;;;;;764588;184;629548;-78
2022/05/15 12:53:52;;;;;;;8.67;4.00;;;;;;;;;;758983;183;670512;-80
2022/05/15 12:56:25;;;;;;;12.03;5.07;;;;;;;;;;757564;183;626215;-77
2022/05/15 12:58:50;;;;;;;9.70;4.17;;;;;;;;;;758965;183;919888;-76
2022/05/15 13:01:16;;;;;;;10.57;4.47;;;;;;;;;;762972;184;630413;-77
2022/05/15 13:03:43;;;;;;;7.73;4.10;;;;;;;;;;760951;183;932924;-77
2022/05/15 13:06:09;;;;;;;9.40;4.77;;;;;;;;;;763189;182;628359;-79
2022/05/15 13:08:41;;;;;;;16.30;4.90;;;;;;;;;;769962;183;664124;-79
2022/05/15 13:11:06;;;;;;;12.43;5.57;;;;;;;;;;763865;185;628765;-78
2022/05/15 13:13:35;;;;;;;11.43;4.97;;;;;;;;;;763962;183;700271;-78
2022/05/15 13:16:01;;;;;;;11.23;4.60;;;;;;;;;;757486;183;732624;-80
2022/05/15 13:18:27;;;;;;;11.67;4.80;;;;;;;;;;760543;185;723240;-75
2022/05/15 13:20:55;;;;;;;10.00;4.97;;;;;;;;;;763391;183;678269;-75
2022/05/15 13:23:21;;;;;;;8.47;4.60;;;;;;;;;;768225;183;637010;-79
2022/05/15 13:25:48;;;;;;;9.50;4.53;;;;;;;;;;761670;184;625449;-76
2022/05/15 13:28:14;;;;;;;9.57;4.70;;;;;;;;;;764595;183;615876;-78
2022/05/15 13:30:40;;;;;;;7.80;3.87;;;;;;;;;;762338;183;654840;-77
2022/05/15 13:33:05;;;;;;;11.80;5.03;;;;;;;;;;766974;183;625689;-77
2022/05/15 13:35:33;;;;;;;13.50;4.73;;;;;;;;;;766180;183;626847;-75
2022/05/15 13:37:59;;;;;;;13.87;4.57;;;;;;;;;;755736;184;644763;-75
2022/05/15 13:45:28;;;;;;;7.60;4.13;;;;;;;;;;751531;184;907617;-75
2022/05/15 13:48:02;;;;;;;9.63;3.97;;;;;;;;;;750474;183;748392;-79
2022/05/15 13:50:29;;;;;;;10.10;4.30;;;;;;;;;;753333;185;916642;-78
2022/05/15 13:52:55;;;;;;;9.50;4.13;;;;;;;;;;753061;185;793151;-78
2022/05/15 13:55:21;;;;;;;6.73;3.97;;;;;;;;;;755655;184;806581;-78
2022/05/15 13:57:50;;;;;;;9.23;3.83;;;;;;;;;;759174;184;914821;-81
2022/05/15 14:00:17;;;;;;;10.23;4.10;;;;;;;;;;755868;184;806836;-78
2022/05/15 14:02:54;;;;;;;11.60;4.07;;;;;;;;;;759863;183;1018520;-80
2022/05/15 14:05:19;;;;;;;5.07;3.60;;;;;;;;;;768432;184;618434;-77
2022/05/15 14:07:45;;;;;;;12.30;4.10;;;;;;;;;;762747;184;932257;-78
2022/05/15 14:10:22;;;;;;;8.20;4.50;;;;;;;;;;753245;184;919698;-77
2022/05/15 14:12:49;;;;;;;6.33;3.40;;;;;;;;;;758584;185;913473;-79
2022/05/15 14:15:20;;;;;;;14.77;3.60;;;;;;;;;;767641;184;615330;-81
2022/05/15 14:17:47;;;;;;;6.73;3.80;;;;;;;;;;771250;182;638531;-81
2022/05/15 14:20:12;;;;;;;10.23;4.27;;;;;;;;;;764354;183;633350;-75
2022/05/15 14:22:38;;;;;;;9.57;5.53;;;;;;;;;;766616;183;841055;-81
2022/05/15 14:25:04;;;;;;;9.33;4.10;;;;;;;;;;769121;183;630828;-80
2022/05/15 14:27:30;;;;;;;12.93;4.03;;;;;;;;;;756486;184;617507;-81
2022/05/15 14:29:56;;;;;;;12.70;5.03;;;;;;;;;;754154;184;758299;-77
2022/05/15 14:32:22;;;;;;;12.43;4.43;;;;;;;;;;759212;185;633175;-77
2022/05/15 14:34:47;;;;;;;8.37;3.77;;;;;;;;;;753922;185;815958;-75
2022/05/15 14:37:13;;;;;;;5.20;3.50;;;;;;;;;;761006;184;920164;-79
2022/05/15 14:39:39;;;;;;;6.80;3.63;;;;;;;;;;753428;184;625183;-77
2022/05/15 14:42:05;;;;;;;10.70;5.20;;;;;;;;;;760345;184;815198;-76